Time;durP1;ratioP1;P1;durP2;ratioP2;P2;SDS_P1;SDS_P2;PMS_P1;PMS_P2;Temp;Humidity;BMP_temperature;BMP_pressure;BME280_temperature;BME280_humidity;BME280_pressure;Samples;Min_cycle;Max_cycle;Signal;HPM_P1;HPM_P2
2022/01/20 00:02:24;;;;;;;14.63;2.88;;;3.80;99.90;;;;;;5072495;28;20058;-71
2022/01/20 00:05:03;;;;;;;13.50;2.50;;;4.60;99.90;;;;;;5081371;28;20395;-71
2022/01/20 00:07:35;;;;;;;12.10;2.10;;;3.60;99.90;;;;;;5080045;28;20127;-71
2022/01/20 00:25:46;;;;;;;16.58;2.58;;;4.20;99.90;;;;;;5080617;28;20075;-70
2022/01/20 00:26:20;;;;;;;10.65;1.98;;;4.00;99.90;;;;;;5082851;28;20178;-70
2022/01/20 00:28:49;;;;;;;16.10;2.38;;;4.00;99.90;;;;;;5064730;28;20039;-70
2022/01/20 00:33:49;;;;;;;9.75;2.42;;;4.00;99.90;;;;;;5092531;28;20420;-70
2022/01/20 00:38:42;;;;;;;13.95;2.20;;;4.50;99.90;;;;;;5069444;28;20040;-70
2022/01/20 00:41:14;;;;;;;13.75;2.65;;;4.10;99.90;;;;;;5085195;28;20043;-70
2022/01/20 00:43:43;;;;;;;6.00;2.00;;;4.20;99.90;;;;;;5064265;28;20515;-70
2022/01/20 00:46:09;;;;;;;18.73;2.60;;;4.00;99.90;;;;;;5068348;28;20043;-70
2022/01/20 00:48:35;;;;;;;9.55;2.75;;;3.90;99.90;;;;;;5086406;28;20050;-70
2022/01/20 00:51:01;;;;;;;13.23;2.20;;;3.90;99.90;;;;;;5091801;28;20043;-70
2022/01/20 00:53:26;;;;;;;15.68;2.78;;;3.80;99.90;;;;;;5073738;28;20043;-70
2022/01/20 00:55:52;;;;;;;10.32;2.40;;;3.70;99.90;;;;;;5085641;28;20043;-70
2022/01/20 00:58:18;;;;;;;10.57;2.10;;;3.70;99.90;;;;;;5072987;28;20064;-70
2022/01/20 01:00:44;;;;;;;9.88;1.90;;;3.80;99.90;;;;;;5085045;28;20548;-70
2022/01/20 01:03:09;;;;;;;9.95;1.90;;;3.70;99.90;;;;;;5075707;28;20519;-70
2022/01/20 01:05:42;;;;;;;10.40;1.77;;;3.60;99.90;;;;;;5072721;28;20185;-70
2022/01/20 01:08:08;;;;;;;11.07;1.98;;;3.80;99.90;;;;;;5089323;28;20110;-70
2022/01/20 01:10:36;;;;;;;11.35;2.55;;;4.20;99.90;;;;;;5061666;28;20057;-70
2022/01/20 01:13:15;;;;;;;14.60;2.28;;;3.60;99.90;;;;;;5054432;28;20040;-70
2022/01/20 01:15:45;;;;;;;12.48;2.22;;;3.70;99.90;;;;;;5070574;28;20484;-70
2022/01/20 01:23:28;;;;;;;14.02;3.00;;;3.70;99.90;;;;;;5066511;28;20411;-70
2022/01/20 01:25:57;;;;;;;13.10;2.33;;;3.60;99.90;;;;;;5082269;28;20400;-70
2022/01/20 01:28:26;;;;;;;17.50;2.60;;;3.80;99.90;;;;;;5076743;28;20043;-70
2022/01/20 01:33:39;;;;;;;10.10;1.73;;;3.70;99.90;;;;;;5077279;28;20924;-70
2022/01/20 01:36:08;;;;;;;11.00;2.58;;;3.80;99.90;;;;;;5077549;28;20043;-70
2022/01/20 01:38:38;;;;;;;15.93;2.30;;;3.90;99.90;;;;;;5061813;28;20047;-70
2022/01/20 01:41:14;;;;;;;16.63;2.10;;;3.70;99.90;;;;;;5083145;28;20047;-70
2022/01/20 01:43:43;;;;;;;8.70;1.50;;;3.90;99.90;;;;;;5067151;28;20124;-69
2022/01/20 01:46:11;;;;;;;6.13;1.58;;;3.90;99.90;;;;;;5086210;28;20458;-69
2022/01/20 01:48:38;;;;;;;8.93;1.60;;;3.90;99.90;;;;;;5081503;28;20040;-69
2022/01/20 01:51:03;;;;;;;12.70;1.77;;;3.90;99.90;;;;;;5068111;28;20101;-69
2022/01/20 01:53:29;;;;;;;10.77;1.98;;;3.70;99.90;;;;;;5081065;28;20040;-69
2022/01/20 01:55:55;;;;;;;8.30;2.00;;;3.80;99.90;;;;;;5067029;28;20111;-69
2022/01/20 01:58:22;;;;;;;11.98;2.00;;;3.90;99.90;;;;;;5076011;28;20033;-70
2022/01/20 02:00:47;;;;;;;11.02;1.40;;;4.20;99.90;;;;;;5068574;28;20082;-70
2022/01/20 02:03:14;;;;;;;6.90;1.20;;;3.70;99.90;;;;;;5085613;28;20086;-70
2022/01/20 02:06:02;;;;;;;9.73;1.65;;;3.60;99.90;;;;;;5083621;28;20060;-70
2022/01/20 02:19:12;;;;;;;5.38;1.27;;;3.50;99.90;;;;;;5077385;28;20044;-70
2022/01/20 02:21:46;;;;;;;12.68;2.83;;;3.70;99.90;;;;;;5084724;28;20094;-70
2022/01/20 02:24:11;;;;;;;9.57;1.70;;;4.20;99.90;;;;;;5081942;28;20093;-70
2022/01/20 02:26:37;;;;;;;9.80;1.65;;;3.60;99.90;;;;;;5082869;28;20507;-70
2022/01/20 02:29:04;;;;;;;7.25;1.70;;;3.90;99.90;;;;;;5047817;28;20506;-70
2022/01/20 02:31:30;;;;;;;7.15;1.23;;;3.90;99.90;;;;;;5083965;28;20036;-70
2022/01/20 02:33:57;;;;;;;12.02;1.88;;;3.90;99.90;;;;;;5082965;28;20468;-70
2022/01/20 02:36:23;;;;;;;9.40;1.52;;;2.00;99.90;;;;;;5066426;28;20051;-70
2022/01/20 02:38:57;;;;;;;13.45;2.03;;;3.90;99.90;;;;;;5081933;28;20040;-70
2022/01/20 02:46:52;;;;;;;6.50;1.95;;;3.80;99.90;;;;;;5044980;28;20381;-70
2022/01/20 02:49:19;;;;;;;7.55;1.83;;;3.70;99.90;;;;;;5084740;28;20040;-70
2022/01/20 02:51:53;;;;;;;18.55;3.58;;;3.60;99.90;;;;;;5065964;28;20047;-69
2022/01/20 02:54:20;;;;;;;16.02;2.85;;;3.70;99.90;;;;;;5095778;28;20040;-69
2022/01/20 02:56:46;;;;;;;9.98;3.50;;;3.70;99.90;;;;;;5068442;28;20089;-69
2022/01/20 02:59:12;;;;;;;18.67;2.50;;;3.50;99.90;;;;;;5079013;28;20091;-69
2022/01/20 03:01:38;;;;;;;9.98;2.22;;;3.50;99.90;;;;;;5078609;28;20091;-69
2022/01/20 03:04:04;;;;;;;11.77;2.22;;;3.50;99.90;;;;;;5093805;28;20070;-70
2022/01/20 03:06:30;;;;;;;13.02;2.30;;;3.50;99.90;;;;;;5083930;28;20685;-70
2022/01/20 03:08:56;;;;;;;14.90;3.33;;;3.50;99.90;;;;;;5081210;28;20059;-70
2022/01/20 03:11:22;;;;;;;8.52;2.13;;;3.40;99.90;;;;;;5069915;28;20050;-70
2022/01/20 03:13:47;;;;;;;19.63;3.75;;;3.50;99.90;;;;;;5070966;28;20050;-70
2022/01/20 03:16:13;;;;;;;18.63;3.60;;;4.00;99.90;;;;;;5086870;28;20111;-70
2022/01/20 03:18:39;;;;;;;14.32;2.75;;;3.50;99.90;;;;;;5069315;28;20047;-70
2022/01/20 03:21:04;;;;;;;19.00;5.07;;;3.40;99.90;;;;;;5069082;28;20399;-70
2022/01/20 03:23:30;;;;;;;18.50;3.33;;;3.60;99.90;;;;;;5084131;28;20351;-70
2022/01/20 03:25:56;;;;;;;14.30;2.95;;;3.50;99.90;;;;;;5076426;28;20080;-70
2022/01/20 03:28:21;;;;;;;17.17;3.08;;;3.50;99.90;;;;;;5041910;28;20429;-70
2022/01/20 03:30:47;;;;;;;17.17;3.30;;;4.10;99.90;;;;;;5059029;28;20048;-70
2022/01/20 03:33:13;;;;;;;18.27;4.82;;;3.60;99.90;;;;;;5084358;28;20040;-70
2022/01/20 03:35:41;;;;;;;13.98;3.03;;;3.60;99.90;;;;;;5081184;28;20042;-70
2022/01/20 03:38:07;;;;;;;16.10;3.83;;;3.60;99.90;;;;;;5051690;28;20050;-70
2022/01/20 03:40:33;;;;;;;22.83;3.65;;;3.60;99.90;;;;;;5081068;28;20094;-70
2022/01/20 03:42:59;;;;;;;18.95;3.67;;;3.60;99.90;;;;;;5083860;28;20067;-70
2022/01/20 03:45:27;;;;;;;16.30;3.38;;;3.60;99.90;;;;;;5071317;28;20571;-70
2022/01/20 03:47:55;;;;;;;20.95;3.80;;;3.60;99.90;;;;;;5082448;28;20105;-70
2022/01/20 03:53:06;;;;;;;19.15;4.10;;;3.40;99.90;;;;;;5086521;28;20044;-70
2022/01/20 03:55:32;;;;;;;21.55;3.55;;;3.40;99.90;;;;;;5075938;28;20395;-70
2022/01/20 03:57:59;;;;;;;23.30;4.15;;;3.30;99.90;;;;;;5084053;28;20079;-70
2022/01/20 04:00:24;;;;;;;23.92;4.65;;;3.40;99.90;;;;;;5082153;28;20039;-70
2022/01/20 04:02:50;;;;;;;13.30;3.13;;;3.40;99.90;;;;;;5060593;28;20040;-70
2022/01/20 04:05:16;;;;;;;18.50;3.58;;;3.40;99.90;;;;;;5079047;28;20044;-70
2022/01/20 04:07:41;;;;;;;25.50;4.32;;;3.40;99.90;;;;;;5067824;28;20035;-70
2022/01/20 04:10:08;;;;;;;10.30;3.65;;;3.40;99.90;;;;;;5067008;28;20451;-69
2022/01/20 04:12:33;;;;;;;16.27;2.45;;;3.50;99.90;;;;;;5063927;28;20414;-69
2022/01/20 04:15:06;;;;;;;16.38;2.50;;;3.50;99.90;;;;;;5068928;28;20059;-69
2022/01/20 04:17:32;;;;;;;13.63;2.88;;;3.50;99.90;;;;;;5077064;28;20048;-69
2022/01/20 04:19:58;;;;;;;11.82;2.72;;;3.40;99.90;;;;;;5081305;28;20483;-69
2022/01/20 04:22:26;;;;;;;15.60;2.47;;;3.30;99.90;;;;;;5088075;28;20123;-70
2022/01/20 04:24:52;;;;;;;17.15;2.97;;;3.30;99.90;;;;;;5057993;28;20044;-70
2022/01/20 04:27:18;;;;;;;11.63;1.98;;;3.20;99.90;;;;;;5085484;28;20040;-70
2022/01/20 04:29:43;;;;;;;12.13;2.75;;;3.20;99.90;;;;;;5057728;28;20122;-70
2022/01/20 04:32:09;;;;;;;14.77;2.70;;;3.20;99.90;;;;;;5089847;28;20563;-70
2022/01/20 04:34:35;;;;;;;21.70;3.22;;;3.30;99.90;;;;;;5084234;28;20044;-70
2022/01/20 04:37:04;;;;;;;12.13;2.45;;;3.70;99.90;;;;;;5073960;28;20050;-70
2022/01/20 04:39:32;;;;;;;12.63;3.20;;;3.20;99.90;;;;;;5084947;28;20032;-70
2022/01/20 04:41:58;;;;;;;11.95;3.17;;;3.40;99.90;;;;;;5068745;28;20176;-70
2022/01/20 04:45:01;;;;;;;16.80;3.00;;;4.00;99.90;;;;;;5083284;28;20130;-70
2022/01/20 04:58:04;;;;;;;11.75;1.98;;;3.40;99.90;;;;;;5086536;28;20050;-70
2022/01/20 05:00:30;;;;;;;11.40;3.85;;;3.40;99.90;;;;;;5084459;28;20271;-70
2022/01/20 05:02:57;;;;;;;15.82;3.70;;;3.30;99.90;;;;;;5081227;28;20059;-70
2022/01/20 05:05:23;;;;;;;15.65;2.80;;;3.30;99.90;;;;;;5068665;28;20515;-70
2022/01/20 05:07:48;;;;;;;14.43;2.60;;;3.20;99.90;;;;;;5089239;28;20071;-70
2022/01/20 05:10:14;;;;;;;8.43;1.75;;;3.20;99.90;;;;;;5080307;28;20056;-70
2022/01/20 05:15:15;;;;;;;12.98;3.78;;;3.20;99.90;;;;;;5097958;28;20497;-70
2022/01/20 05:17:40;;;;;;;12.27;2.50;;;3.10;99.90;;;;;;5069911;28;20057;-70
2022/01/20 05:20:07;;;;;;;9.70;2.40;;;3.10;99.90;;;;;;5053118;28;20112;-69
2022/01/20 05:22:32;;;;;;;12.07;2.42;;;3.10;99.90;;;;;;5054692;28;20302;-69
2022/01/20 05:24:58;;;;;;;10.45;2.53;;;3.00;99.90;;;;;;5074783;28;20435;-69
2022/01/20 05:27:24;;;;;;;13.60;2.47;;;4.20;99.90;;;;;;5071239;28;20499;-69
2022/01/20 05:29:49;;;;;;;10.63;2.13;;;3.10;99.90;;;;;;5042557;28;20453;-70
2022/01/20 05:32:15;;;;;;;10.05;2.05;;;3.20;99.90;;;;;;5084004;28;20031;-70
2022/01/20 05:34:41;;;;;;;15.88;2.25;;;3.20;99.90;;;;;;5065039;28;20101;-70
2022/01/20 05:37:07;;;;;;;12.35;2.00;;;3.30;99.90;;;;;;5087588;28;20041;-70
2022/01/20 05:39:32;;;;;;;19.25;2.15;;;3.10;99.90;;;;;;5089322;28;20136;-70
2022/01/20 05:41:58;;;;;;;7.43;1.55;;;3.30;99.90;;;;;;5072129;28;20043;-70
2022/01/20 05:44:24;;;;;;;7.15;1.40;;;3.20;99.90;;;;;;5090522;28;20115;-70
2022/01/20 05:46:52;;;;;;;6.55;1.20;;;3.00;99.90;;;;;;5063356;28;20036;-70
2022/01/20 05:49:21;;;;;;;8.20;1.33;;;2.90;99.90;;;;;;5092076;28;20384;-70
2022/01/20 05:51:52;;;;;;;7.22;1.30;;;2.90;99.90;;;;;;5055732;28;20035;-70
2022/01/20 05:54:19;;;;;;;6.47;1.17;;;2.70;99.90;;;;;;5067941;28;20129;-70
2022/01/20 05:56:45;;;;;;;6.38;1.35;;;5.20;99.90;;;;;;5050224;28;20028;-70
2022/01/20 05:59:12;;;;;;;6.55;1.63;;;3.10;99.90;;;;;;5068104;28;20616;-70
2022/01/20 06:01:38;;;;;;;6.45;1.83;;;2.60;99.90;;;;;;5086432;28;20043;-70
2022/01/20 06:04:06;;;;;;;10.95;2.08;;;2.50;99.90;;;;;;5072685;28;20036;-70
2022/01/20 06:06:32;;;;;;;6.78;1.77;;;2.40;99.90;;;;;;5082044;28;20036;-70
2022/01/20 06:08:58;;;;;;;12.00;1.70;;;2.40;99.90;;;;;;5085116;28;20104;-70
2022/01/20 06:11:23;;;;;;;18.08;3.17;;;2.40;99.90;;;;;;5064674;28;20052;-70
2022/01/20 06:13:49;;;;;;;16.65;2.53;;;2.50;99.90;;;;;;5085171;28;20391;-70
2022/01/20 06:16:15;;;;;;;11.90;3.22;;;2.30;99.90;;;;;;5073506;28;20491;-70
2022/01/20 06:18:41;;;;;;;10.60;2.92;;;2.30;99.90;;;;;;5085226;28;20043;-70
2022/01/20 06:21:07;;;;;;;10.95;2.60;;;2.30;99.90;;;;;;5069883;28;20043;-70
2022/01/20 06:23:33;;;;;;;14.68;3.83;;;2.40;99.90;;;;;;5070138;28;20538;-70
2022/01/20 06:26:04;;;;;;;12.90;2.55;;;2.40;99.90;;;;;;5087911;28;20039;-69
2022/01/20 06:28:32;;;;;;;18.67;2.40;;;2.50;99.90;;;;;;5068620;28;20320;-69
2022/01/20 06:30:57;;;;;;;19.75;2.85;;;2.50;99.90;;;;;;5084894;28;20530;-70
2022/01/20 06:33:23;;;;;;;9.98;2.22;;;2.60;99.90;;;;;;5069058;28;20063;-70
2022/01/20 06:35:49;;;;;;;11.40;2.50;;;2.80;99.90;;;;;;5072585;28;20403;-69
2022/01/20 06:38:15;;;;;;;13.15;2.85;;;2.60;99.90;;;;;;5070155;28;20042;-70
2022/01/20 06:40:41;;;;;;;9.63;2.58;;;2.60;99.90;;;;;;5084626;28;20058;-69
2022/01/20 06:43:07;;;;;;;17.30;3.00;;;2.70;99.90;;;;;;5087946;28;20071;-69
2022/01/20 06:45:33;;;;;;;8.90;2.33;;;2.90;99.90;;;;;;5088975;28;20443;-70
2022/01/20 06:47:59;;;;;;;9.95;2.30;;;2.80;99.90;;;;;;5070136;28;20036;-70
2022/01/20 06:50:25;;;;;;;7.97;2.95;;;2.80;99.90;;;;;;5085798;28;20514;-69
2022/01/20 06:52:52;;;;;;;13.38;2.75;;;2.80;99.90;;;;;;5063347;28;20040;-69
2022/01/20 06:55:18;;;;;;;14.60;3.40;;;3.30;99.90;;;;;;5082721;28;20556;-69
2022/01/20 06:57:44;;;;;;;11.65;2.60;;;2.70;99.90;;;;;;5090480;28;20039;-69
2022/01/20 07:00:13;;;;;;;14.25;2.75;;;2.50;99.90;;;;;;5086809;28;20044;-69
2022/01/20 07:02:38;;;;;;;11.07;2.60;;;2.50;99.90;;;;;;5082626;28;20095;-69
2022/01/20 07:05:05;;;;;;;16.27;2.78;;;2.40;99.90;;;;;;5090000;28;20436;-69
2022/01/20 07:07:31;;;;;;;12.38;2.17;;;2.30;99.90;;;;;;5085891;28;20051;-70
2022/01/20 07:09:58;;;;;;;10.13;2.33;;;3.20;99.90;;;;;;5096106;28;20050;-69
2022/01/20 07:12:24;;;;;;;10.80;2.10;;;2.20;99.90;;;;;;5066115;28;20123;-71
2022/01/20 07:14:50;;;;;;;10.77;2.17;;;2.10;99.90;;;;;;5082831;28;20059;-69
2022/01/20 07:17:16;;;;;;;8.68;2.08;;;2.10;99.90;;;;;;5083858;28;20075;-69
2022/01/20 07:19:42;;;;;;;14.05;2.35;;;2.10;99.90;;;;;;5070842;28;20041;-69
2022/01/20 07:22:07;;;;;;;9.55;1.88;;;2.00;99.90;;;;;;5085429;28;20043;-69
2022/01/20 07:24:33;;;;;;;11.27;2.70;;;2.00;99.90;;;;;;5067177;28;20043;-69
2022/01/20 07:26:59;;;;;;;11.60;2.03;;;2.00;99.90;;;;;;5083116;28;20066;-70
2022/01/20 07:29:26;;;;;;;13.38;2.20;;;2.00;99.90;;;;;;5078476;28;20077;-70
2022/01/20 07:31:52;;;;;;;12.13;2.28;;;2.00;99.90;;;;;;5077268;28;20039;-70
2022/01/20 07:34:18;;;;;;;8.40;2.20;;;2.00;99.90;;;;;;5053415;28;20059;-70
2022/01/20 07:36:43;;;;;;;11.55;2.08;;;2.00;99.90;;;;;;5078031;28;20075;-70
2022/01/20 07:39:09;;;;;;;11.07;2.35;;;2.10;99.90;;;;;;5089689;28;20077;-70
2022/01/20 07:41:35;;;;;;;13.73;1.95;;;2.20;99.90;;;;;;5065563;28;20163;-70
2022/01/20 07:44:00;;;;;;;10.00;2.22;;;2.20;99.90;;;;;;5082407;28;20114;-70
2022/01/20 07:46:26;;;;;;;12.02;3.17;;;2.30;99.90;;;;;;5064025;28;20036;-70
2022/01/20 07:48:52;;;;;;;9.93;2.30;;;2.30;99.90;;;;;;5066488;28;20090;-70
2022/01/20 07:51:19;;;;;;;13.68;2.63;;;3.00;99.90;;;;;;5080921;28;20376;-70
2022/01/20 07:53:45;;;;;;;8.77;1.73;;;2.30;99.90;;;;;;5086305;28;20040;-70
2022/01/20 07:56:11;;;;;;;13.30;2.80;;;2.20;99.90;;;;;;5071204;28;20028;-70
2022/01/20 07:58:37;;;;;;;13.13;2.28;;;2.20;99.90;;;;;;5093987;28;20031;-70
2022/01/20 08:01:04;;;;;;;11.20;1.73;;;2.20;99.90;;;;;;5086084;28;20039;-70
2022/01/20 08:03:30;;;;;;;9.32;2.33;;;2.20;99.90;;;;;;5087672;28;21023;-70
2022/01/20 08:05:56;;;;;;;9.57;1.85;;;2.70;99.90;;;;;;5088409;28;20130;-70
2022/01/20 08:08:22;;;;;;;8.43;1.55;;;2.30;99.90;;;;;;5057369;28;20532;-70
2022/01/20 08:10:48;;;;;;;7.53;2.10;;;2.40;99.90;;;;;;5092312;28;20044;-70
2022/01/20 08:13:14;;;;;;;10.65;1.98;;;2.40;99.90;;;;;;5076788;28;20171;-69
2022/01/20 08:15:40;;;;;;;6.93;1.55;;;2.40;99.90;;;;;;5090801;28;20032;-69
2022/01/20 08:18:07;;;;;;;7.38;1.45;;;2.80;99.90;;;;;;5091052;28;20122;-69
2022/01/20 08:20:33;;;;;;;8.23;1.73;;;2.20;99.90;;;;;;5091982;28;20106;-69
2022/01/20 08:22:59;;;;;;;12.13;2.10;;;2.10;99.90;;;;;;5074649;28;20423;-69
2022/01/20 08:25:26;;;;;;;13.13;2.25;;;2.10;99.90;;;;;;5107672;27;20040;-69
2022/01/20 08:27:52;;;;;;;9.00;1.77;;;2.10;99.90;;;;;;5095210;28;20047;-69
2022/01/20 08:30:21;;;;;;;12.82;1.60;;;2.10;99.90;;;;;;5076206;28;20031;-69
2022/01/20 08:32:48;;;;;;;11.13;2.00;;;2.00;99.90;;;;;;5091324;28;20105;-69
2022/01/20 08:35:14;;;;;;;14.68;2.50;;;2.10;99.90;;;;;;5091930;28;20042;-69
2022/01/20 08:37:44;;;;;;;10.75;1.85;;;2.10;99.90;;;;;;5061806;28;20050;-70
2022/01/20 08:40:12;;;;;;;12.18;2.30;;;2.10;99.90;;;;;;5091011;28;20039;-70
2022/01/20 08:42:39;;;;;;;14.52;3.33;;;2.10;99.90;;;;;;5091944;28;20130;-69
2022/01/20 08:45:07;;;;;;;13.77;2.88;;;2.20;99.90;;;;;;5079918;28;20043;-69
2022/01/20 08:47:33;;;;;;;12.60;2.88;;;2.30;99.90;;;;;;5094869;28;20051;-69
2022/01/20 08:49:59;;;;;;;13.43;2.58;;;2.30;99.90;;;;;;5074282;28;20430;-69
2022/01/20 08:52:28;;;;;;;14.98;2.90;;;2.40;99.90;;;;;;5076644;28;20114;-69
2022/01/20 08:54:56;;;;;;;12.93;2.58;;;2.40;99.90;;;;;;5095034;28;20036;-69
2022/01/20 08:57:22;;;;;;;14.15;2.45;;;3.40;99.90;;;;;;5092994;28;20438;-69
2022/01/20 08:59:48;;;;;;;11.05;2.60;;;2.60;99.90;;;;;;5074890;28;20043;-69
2022/01/20 09:02:13;;;;;;;16.88;3.22;;;2.70;99.90;;;;;;5093406;28;20040;-69
2022/01/20 09:04:39;;;;;;;13.77;1.98;;;2.70;99.90;;;;;;5060292;28;20059;-69
2022/01/20 09:07:06;;;;;;;10.48;2.35;;;2.80;99.90;;;;;;5088923;28;20035;-69
2022/01/20 09:09:39;;;;;;;8.95;2.25;;;2.90;99.90;;;;;;5076849;28;20051;-69
2022/01/20 09:17:27;;;;;;;6.30;1.17;;;2.90;99.90;;;;;;5081568;28;20511;-69
2022/01/20 09:19:53;;;;;;;3.88;1.08;;;3.20;99.90;;;;;;5068920;28;20050;-69
2022/01/20 09:22:19;;;;;;;6.72;2.15;;;2.60;99.90;;;;;;5088854;28;20047;-69
2022/01/20 09:24:46;;;;;;;6.90;0.95;;;2.50;99.90;;;;;;5092886;28;20039;-69
2022/01/20 09:27:13;;;;;;;6.32;1.17;;;2.40;99.90;;;;;;5090123;28;20043;-69
2022/01/20 09:29:40;;;;;;;9.82;1.25;;;2.40;99.90;;;;;;5073369;28;20039;-69
2022/01/20 09:32:09;;;;;;;7.90;1.30;;;2.70;99.90;;;;;;5074735;28;20055;-69
2022/01/20 09:34:35;;;;;;;10.30;1.63;;;2.60;99.90;;;;;;5055566;28;20035;-70
2022/01/20 09:37:00;;;;;;;12.15;1.73;;;2.70;99.90;;;;;;5074867;28;20031;-70
2022/01/20 09:39:26;;;;;;;6.13;1.33;;;2.90;99.90;;;;;;5055083;28;20488;-70
2022/01/20 09:41:52;;;;;;;8.95;1.35;;;3.00;99.90;;;;;;5088303;28;20040;-70
2022/01/20 09:44:18;;;;;;;5.55;1.42;;;3.00;99.90;;;;;;5071745;28;20050;-70
2022/01/20 09:46:45;;;;;;;4.53;1.10;;;2.90;99.90;;;;;;5086361;28;20039;-70
2022/01/20 09:49:11;;;;;;;10.70;2.20;;;2.80;99.90;;;;;;5072821;28;20122;-70
2022/01/20 09:51:38;;;;;;;6.25;1.83;;;2.70;99.90;;;;;;5085472;28;20051;-70
2022/01/20 09:54:05;;;;;;;7.82;1.50;;;2.70;99.90;;;;;;5088856;28;20456;-70
2022/01/20 09:56:31;;;;;;;7.60;2.28;;;2.60;99.90;;;;;;5074777;28;20056;-69
2022/01/20 09:58:57;;;;;;;8.43;2.30;;;2.60;99.90;;;;;;5083648;28;20183;-69
2022/01/20 10:01:46;;;;;;;9.20;2.25;;;2.60;99.90;;;;;;5054667;28;20040;-69
2022/01/20 10:04:22;;;;;;;5.82;1.88;;;2.70;99.90;;;;;;5067788;28;20040;-69
2022/01/20 10:07:09;;;;;;;10.10;1.80;;;2.80;99.90;;;;;;5090045;28;20491;-69
2022/01/20 10:09:41;;;;;;;9.25;2.22;;;2.80;99.90;;;;;;5080618;28;20056;-69
2022/01/20 10:12:10;;;;;;;9.23;1.80;;;2.90;99.90;;;;;;5090844;28;20379;-69
2022/01/20 10:14:47;;;;;;;10.00;1.77;;;3.20;99.90;;;;;;5091026;28;20109;-69
2022/01/20 10:17:29;;;;;;;14.65;2.22;;;3.30;99.90;;;;;;5087671;28;20032;-69
2022/01/20 10:20:07;;;;;;;15.20;2.28;;;3.40;99.90;;;;;;5089708;28;20039;-69
2022/01/20 10:22:36;;;;;;;10.50;1.95;;;3.30;99.90;;;;;;5090010;28;20078;-69
2022/01/20 10:25:14;;;;;;;8.10;2.30;;;3.40;99.90;;;;;;5075232;28;20066;-69
2022/01/20 10:27:52;;;;;;;9.20;2.00;;;3.50;99.90;;;;;;5086397;28;20084;-70
2022/01/20 10:30:18;;;;;;;15.63;2.35;;;3.70;99.90;;;;;;5070078;28;20071;-70
2022/01/20 10:32:50;;;;;;;10.18;2.08;;;4.00;99.90;;;;;;5091059;28;20032;-70
2022/01/20 10:35:23;;;;;;;16.05;2.72;;;4.10;99.90;;;;;;5091528;28;20118;-69
2022/01/20 10:38:00;;;;;;;14.20;2.58;;;4.20;99.90;;;;;;5087197;28;20075;-69
2022/01/20 10:40:27;;;;;;;15.35;2.60;;;4.30;99.90;;;;;;5082516;28;20043;-69
2022/01/20 10:42:53;;;;;;;8.85;1.92;;;4.30;99.90;;;;;;5089843;28;20047;-69
2022/01/20 10:45:24;;;;;;;8.30;2.08;;;4.40;99.90;;;;;;5068913;28;20040;-69
2022/01/20 10:47:53;;;;;;;10.95;2.17;;;4.40;99.90;;;;;;5087855;28;20039;-69
2022/01/20 10:50:23;;;;;;;12.38;2.08;;;4.30;99.90;;;;;;5077947;28;20182;-69
2022/01/20 10:52:52;;;;;;;13.63;2.00;;;4.20;99.90;;;;;;5086974;28;20462;-69
2022/01/20 10:55:28;;;;;;;10.55;1.92;;;4.40;99.90;;;;;;5082091;28;20105;-69
2022/01/20 10:57:56;;;;;;;8.82;2.10;;;4.30;99.90;;;;;;5082127;28;20442;-69
2022/01/20 11:00:25;;;;;;;11.70;1.75;;;4.90;99.90;;;;;;5073159;28;20054;-69
2022/01/20 11:02:57;;;;;;;8.00;1.80;;;4.30;99.90;;;;;;5089058;28;20036;-69
2022/01/20 11:05:25;;;;;;;12.82;2.50;;;4.30;99.90;;;;;;5096078;28;20040;-70
2022/01/20 11:07:52;;;;;;;12.85;2.47;;;4.20;99.90;;;;;;5090877;28;20402;-70
2022/01/20 11:10:19;;;;;;;12.43;2.05;;;4.20;99.90;;;;;;5088406;28;20068;-70
2022/01/20 11:12:45;;;;;;;8.85;1.70;;;4.20;99.90;;;;;;5085054;28;20044;-69
2022/01/20 11:15:15;;;;;;;12.40;2.30;;;4.30;99.90;;;;;;5089099;28;20071;-70
2022/01/20 11:17:42;;;;;;;8.35;1.90;;;4.30;99.90;;;;;;5084946;28;20043;-70
2022/01/20 11:20:10;;;;;;;8.07;2.78;;;4.40;99.90;;;;;;5089120;28;20395;-69
2022/01/20 11:22:37;;;;;;;13.82;2.15;;;4.40;99.90;;;;;;5089911;28;20039;-69
2022/01/20 11:25:08;;;;;;;11.32;2.70;;;4.50;99.90;;;;;;5086798;28;20110;-69
2022/01/20 11:27:43;;;;;;;;;;;4.60;99.90;;;;;;5083330;28;20040;-69
2022/01/20 11:30:13;;;;;;;12.45;2.40;;;4.80;99.90;;;;;;5085709;28;19943;-69
2022/01/20 11:32:39;;;;;;;10.50;2.25;;;4.70;99.90;;;;;;5071235;28;20035;-69
2022/01/20 11:35:08;;;;;;;14.80;2.63;;;4.70;99.90;;;;;;5053099;28;20084;-69
2022/01/20 11:37:55;;;;;;;14.18;2.95;;;4.70;99.90;;;;;;5088975;28;20043;-69
2022/01/20 11:40:23;;;;;;;14.18;2.63;;;4.60;99.90;;;;;;5089168;28;20095;-69
2022/01/20 11:43:10;;;;;;;17.63;3.72;;;4.50;99.90;;;;;;5071285;28;20077;-69
2022/01/20 11:45:45;;;;;;;18.92;2.67;;;5.00;99.90;;;;;;5081484;28;20478;-69
2022/01/20 11:48:20;;;;;;;7.80;2.00;;;4.40;99.90;;;;;;5084123;28;20278;-69
2022/01/20 11:50:47;;;;;;;13.15;3.40;;;4.40;99.90;;;;;;5086720;28;20061;-70
2022/01/20 11:53:19;;;;;;;12.98;3.47;;;4.50;99.90;;;;;;5088740;28;20032;-70
2022/01/20 11:55:50;;;;;;;8.35;1.65;;;4.70;99.90;;;;;;5085696;28;20402;-70
2022/01/20 11:58:19;;;;;;;13.00;3.65;;;5.50;99.90;;;;;;5077598;28;20063;-70
2022/01/20 12:00:55;;;;;;;11.10;3.40;;;5.10;99.90;;;;;;5062681;28;20097;-69
2022/01/20 12:03:21;;;;;;;13.20;2.55;;;5.00;99.90;;;;;;5051186;28;20036;-69
2022/01/20 12:06:12;;;;;;;7.15;1.92;;;4.80;99.90;;;;;;5089560;28;20043;-69
2022/01/20 12:08:50;;;;;;;7.45;1.77;;;4.50;99.90;;;;;;5087023;28;20149;-69
2022/01/20 12:11:16;;;;;;;5.65;1.65;;;4.20;99.90;;;;;;5072680;28;20039;-69
2022/01/20 12:13:50;;;;;;;6.97;1.63;;;4.00;99.90;;;;;;5069184;28;20479;-70
2022/01/20 12:16:20;;;;;;;10.93;1.75;;;4.10;99.90;;;;;;5086867;28;20035;-70
2022/01/20 12:18:55;;;;;;;6.93;1.50;;;4.40;99.90;;;;;;5089163;28;20442;-70
2022/01/20 12:21:22;;;;;;;14.52;2.55;;;5.90;99.90;;;;;;5086621;28;20047;-70
2022/01/20 12:23:50;;;;;;;9.38;2.30;;;5.10;99.90;;;;;;5088619;28;20039;-70
2022/01/20 12:26:16;;;;;;;9.38;1.98;;;5.30;99.90;;;;;;5087645;28;20055;-70
2022/01/20 12:28:42;;;;;;;13.50;2.40;;;5.60;99.90;;;;;;5086801;28;20492;-70
2022/01/20 12:31:14;;;;;;;15.32;2.80;;;5.60;99.90;;;;;;5070914;28;20028;-70
2022/01/20 12:33:47;;;;;;;12.40;2.63;;;5.50;99.90;;;;;;5084258;28;20411;-70
2022/01/20 12:36:14;;;;;;;8.55;2.13;;;5.40;99.90;;;;;;5088217;28;20519;-70
2022/01/20 12:38:41;;;;;;;9.25;2.22;;;5.30;99.90;;;;;;5088246;28;20722;-70
2022/01/20 12:41:12;;;;;;;12.07;2.45;;;5.20;99.90;;;;;;5087193;28;20071;-70
2022/01/20 12:43:51;;;;;;;16.67;3.40;;;5.10;99.90;;;;;;5087097;28;20044;-70
2022/01/20 12:46:22;;;;;;;17.75;2.50;;;5.20;99.90;;;;;;5091613;28;20122;-70
2022/01/20 12:49:04;;;;;;;14.77;3.67;;;5.20;99.90;;;;;;5074444;28;20039;-70
2022/01/20 12:51:36;;;;;;;15.40;2.92;;;5.20;99.90;;;;;;5089650;28;20039;-70
2022/01/20 12:54:26;;;;;;;10.48;2.35;;;5.20;99.90;;;;;;5088303;28;20051;-70
2022/01/20 12:56:54;;;;;;;12.15;3.22;;;5.10;99.90;;;;;;5075968;28;20100;-70
2022/01/20 12:59:25;;;;;;;11.63;2.97;;;5.40;99.90;;;;;;5075669;28;20077;-70
2022/01/20 13:01:56;;;;;;;12.38;2.67;;;4.90;99.90;;;;;;5092045;28;20043;-70
2022/01/20 13:04:25;;;;;;;11.98;2.60;;;4.90;99.90;;;;;;5092045;28;20513;-70
2022/01/20 13:07:00;;;;;;;15.27;2.60;;;5.10;99.90;;;;;;5091609;28;20040;-70
2022/01/20 13:10:05;;;;;;;14.00;2.85;;;4.80;99.90;;;;;;5089395;28;20158;-70
2022/01/20 13:12:35;;;;;;;14.27;2.85;;;4.90;99.90;;;;;;5073586;28;20554;-70
2022/01/20 13:15:02;;;;;;;15.55;2.53;;;4.90;99.90;;;;;;5089269;28;20376;-69
2022/01/20 13:17:31;;;;;;;11.38;1.85;;;4.90;99.90;;;;;;5091974;28;20036;-70
2022/01/20 13:19:58;;;;;;;17.42;3.45;;;4.90;99.90;;;;;;5072929;28;20067;-69
2022/01/20 13:25:17;;;;;;;11.85;3.65;;;4.90;99.90;;;;;;5088888;28;20070;-70
2022/01/20 13:27:57;;;;;;;18.20;2.90;;;5.00;99.90;;;;;;5090268;28;20093;-70
2022/01/20 13:30:31;;;;;;;17.45;2.70;;;5.10;99.90;;;;;;5090758;28;20032;-70
2022/01/20 13:32:57;;;;;;;22.98;5.63;;;5.00;99.90;;;;;;5090378;28;20039;-69
2022/01/20 13:35:24;;;;;;;11.98;2.53;;;4.90;99.90;;;;;;5092492;28;20121;-69
2022/01/20 13:38:04;;;;;;;7.15;1.52;;;4.60;99.90;;;;;;5088945;28;20042;-69
2022/01/20 13:40:31;;;;;;;14.18;2.63;;;4.30;99.90;;;;;;5090418;28;20055;-69
2022/01/20 13:45:45;;;;;;;;;;;3.90;99.90;;;;;;5094680;28;20075;-69
2022/01/20 13:48:13;;;;;;;7.93;1.58;;;3.80;99.90;;;;;;5072647;28;19938;-69
2022/01/20 13:50:41;;;;;;;4.65;2.22;;;3.80;99.90;;;;;;5086198;28;20518;-69
2022/01/20 13:53:25;;;;;;;7.72;1.25;;;3.90;99.90;;;;;;5076024;28;20259;-69
2022/01/20 13:55:51;;;;;;;5.70;1.42;;;3.90;99.90;;;;;;5089364;28;20096;-69
2022/01/20 13:58:25;;;;;;;4.80;1.23;;;3.90;99.90;;;;;;5089595;28;20482;-69
2022/01/20 14:00:52;;;;;;;7.05;1.30;;;4.50;99.90;;;;;;5090648;28;20085;-69
2022/01/20 14:03:18;;;;;;;4.78;1.60;;;3.90;99.90;;;;;;5090333;28;20035;-69
2022/01/20 14:05:44;;;;;;;8.13;1.30;;;3.80;99.90;;;;;;5089153;28;20047;-69
2022/01/20 14:08:10;;;;;;;8.85;1.70;;;3.80;99.90;;;;;;5072557;28;20050;-70